createdAt,value
2023-02-08T00:01:27.495Z,-0.64
2023-02-08T00:03:56.149Z,-0.48
2023-02-08T00:06:24.771Z,-0.52
2023-02-08T00:08:53.421Z,-0.57
2023-02-08T00:11:22.297Z,-0.69
2023-02-08T00:13:53.027Z,-0.78
2023-02-08T00:16:21.601Z,-0.90
2023-02-08T00:18:50.048Z,-0.88
2023-02-08T00:21:20.142Z,-0.91
2023-02-08T00:23:48.974Z,-1.07
2023-02-08T00:26:18.086Z,-0.98
2023-02-08T00:28:46.926Z,-0.96
2023-02-08T00:31:19.864Z,-0.97
2023-02-08T00:33:48.529Z,-1.16
2023-02-08T00:36:17.052Z,-1.12
2023-02-08T00:38:45.943Z,-1.07
2023-02-08T00:41:14.478Z,-1.15
2023-02-08T00:43:43.100Z,-1.10
2023-02-08T00:46:11.663Z,-1.10
2023-02-08T00:48:41.630Z,-1.13
2023-02-08T00:51:13.156Z,-1.13
2023-02-08T00:53:43.942Z,-1.95
2023-02-08T00:56:14.061Z,-1.19
2023-02-08T00:58:43.016Z,-1.28
2023-02-08T01:01:12.654Z,-1.27
2023-02-08T01:03:44.100Z,-1.29
2023-02-08T01:06:15.881Z,-1.32
2023-02-08T01:08:44.822Z,-1.47
2023-02-08T01:11:15.606Z,-1.30
2023-02-08T01:13:44.221Z,-1.27
2023-02-08T01:16:14.175Z,-1.44
2023-02-08T01:18:46.070Z,-1.21
2023-02-08T01:21:16.763Z,-1.24
2023-02-08T01:23:46.497Z,-1.33
2023-02-08T01:26:16.679Z,-1.40
2023-02-08T01:28:47.181Z,-1.48
2023-02-08T01:31:19.660Z,-1.76
2023-02-08T01:33:51.056Z,-1.59
2023-02-08T01:36:19.909Z,-1.53
2023-02-08T01:38:48.663Z,-1.51
2023-02-08T01:41:20.816Z,-1.77
2023-02-08T01:44:18.994Z,-1.56
2023-02-08T01:46:51.334Z,-1.57
2023-02-08T01:49:27.534Z,-1.54
2023-02-08T01:52:00.680Z,-1.54
2023-02-08T01:54:33.829Z,-1.56
2023-02-08T01:57:02.782Z,-1.59
2023-02-08T01:59:37.872Z,-1.59
2023-02-08T02:02:09.314Z,-1.56
2023-02-08T02:04:39.664Z,-1.56
2023-02-08T02:07:08.584Z,-1.60
2023-02-08T02:09:45.391Z,-1.77
2023-02-08T02:12:15.400Z,-1.65
2023-02-08T02:14:45.023Z,-1.57
2023-02-08T02:17:16.347Z,-1.57
2023-02-08T02:19:54.145Z,-1.59
2023-02-08T02:22:53.203Z,-1.67
2023-02-08T02:25:48.447Z,-1.75
2023-02-08T02:28:47.068Z,-1.78
2023-02-08T02:31:54.407Z,-1.77
2023-02-08T02:34:28.334Z,-1.78
2023-02-08T02:37:07.428Z,-1.77
2023-02-08T02:39:42.728Z,-1.77
2023-02-08T02:42:32.804Z,-1.78
2023-02-08T02:45:12.561Z,-1.86
2023-02-08T02:47:47.290Z,-1.79
2023-02-08T02:50:25.285Z,-1.85
2023-02-08T02:53:01.006Z,-2.05
2023-02-08T02:55:34.351Z,-2.00
2023-02-08T02:58:04.976Z,-1.93
2023-02-08T03:00:35.231Z,-1.97
2023-02-08T03:03:06.331Z,-2.17
2023-02-08T03:05:35.272Z,-2.18
2023-02-08T03:08:18.637Z,-2.11
2023-02-08T03:10:57.837Z,-2.16
2023-02-08T03:13:35.781Z,-2.16
2023-02-08T03:16:16.290Z,-2.15
2023-02-08T03:18:55.651Z,-2.21
2023-02-08T03:21:32.583Z,-2.12
2023-02-08T03:24:08.727Z,-2.06
2023-02-08T03:26:43.134Z,-2.03
2023-02-08T03:29:19.982Z,-1.98
2023-02-08T03:31:55.574Z,-2.01
2023-02-08T03:34:30.350Z,-1.95
2023-02-08T03:37:05.070Z,-1.93
2023-02-08T03:39:37.195Z,-1.94
2023-02-08T03:42:11.523Z,-2.21
2023-02-08T03:44:43.784Z,-1.99
2023-02-08T03:47:18.947Z,-2.09
2023-02-08T03:49:52.266Z,-2.03
2023-02-08T03:52:20.952Z,-2.22
2023-02-08T03:54:53.320Z,-2.03
2023-02-08T03:57:26.179Z,-2.05
2023-02-08T04:00:01.241Z,-2.02
2023-02-08T04:02:35.008Z,-1.98
2023-02-08T04:05:07.389Z,-1.93
2023-02-08T04:07:36.550Z,-1.89
2023-02-08T04:10:05.632Z,-1.82
2023-02-08T04:12:34.100Z,-1.76
2023-02-08T04:15:02.628Z,-1.73
2023-02-08T04:17:32.435Z,-1.63
2023-02-08T04:20:01.618Z,-1.61
2023-02-08T04:22:31.641Z,-1.57
2023-02-08T04:25:00.290Z,-1.53
2023-02-08T04:27:28.898Z,-1.50
2023-02-08T04:29:57.354Z,-1.44
2023-02-08T04:32:25.897Z,-1.40
2023-02-08T04:34:54.398Z,-1.44
2023-02-08T04:37:22.991Z,-1.44
2023-02-08T04:39:53.014Z,-1.40
2023-02-08T04:42:21.590Z,-1.34
2023-02-08T04:44:50.186Z,-1.29
2023-02-08T04:47:18.707Z,-1.22
2023-02-08T04:49:47.217Z,-1.20
2023-02-08T04:52:15.756Z,-1.14
2023-02-08T04:54:45.318Z,-1.08
2023-02-08T04:57:16.414Z,-1.02
2023-02-08T04:59:44.914Z,-1.00
2023-02-08T05:02:13.498Z,-0.98
2023-02-08T05:04:42.115Z,-0.96
2023-02-08T05:07:11.699Z,-1.00
2023-02-08T05:09:40.320Z,-0.99
2023-02-08T05:12:08.972Z,-1.82
2023-02-08T05:14:38.955Z,-1.01
2023-02-08T05:17:07.506Z,-1.06
2023-02-08T05:19:36.090Z,-1.06
2023-02-08T05:22:04.690Z,-1.05
2023-02-08T05:24:33.602Z,-1.00
2023-02-08T05:27:02.079Z,-0.94
2023-02-08T05:29:30.762Z,-0.86
2023-02-08T05:32:00.850Z,-0.86
2023-02-08T05:34:29.597Z,-0.87
2023-02-08T05:37:00.248Z,-0.93
2023-02-08T05:39:29.834Z,-0.94
2023-02-08T05:41:58.442Z,-1.09
2023-02-08T05:44:27.470Z,-1.08
2023-02-08T05:46:56.040Z,-1.12
2023-02-08T05:49:27.189Z,-1.08
2023-02-08T05:51:55.798Z,-1.04
2023-02-08T05:54:24.959Z,-0.98
2023-02-08T05:56:53.940Z,-0.97
2023-02-08T05:59:22.488Z,-0.92
2023-02-08T06:01:51.028Z,-0.96
2023-02-08T06:04:19.537Z,-0.97
2023-02-08T06:06:49.597Z,-1.00
2023-02-08T06:09:18.122Z,-0.97
2023-02-08T06:11:46.717Z,-0.93
2023-02-08T06:14:15.206Z,-0.91
2023-02-08T06:16:43.839Z,-0.93
2023-02-08T06:19:13.568Z,-0.93
2023-02-08T06:21:42.389Z,-1.01
2023-02-08T06:24:13.965Z,-1.13
2023-02-08T06:26:42.531Z,-1.13
2023-02-08T06:29:11.253Z,-1.12
2023-02-08T06:31:39.966Z,-1.16
2023-02-08T06:34:08.744Z,-1.15
2023-02-08T06:36:37.267Z,-1.12
2023-02-08T06:39:05.767Z,-1.07
2023-02-08T06:41:36.216Z,-1.06
2023-02-08T06:44:04.879Z,-1.09
2023-02-08T06:46:33.331Z,-1.13
2023-02-08T06:49:01.842Z,-1.21
2023-02-08T06:51:30.267Z,-1.31
2023-02-08T06:53:58.800Z,-1.28
2023-02-08T06:56:27.329Z,-1.33
2023-02-08T06:58:57.752Z,-1.27
2023-02-08T07:01:26.325Z,-1.26
2023-02-08T07:03:54.883Z,-1.27
2023-02-08T07:06:23.514Z,-1.24
2023-02-08T07:08:52.070Z,-1.18
2023-02-08T07:11:21.586Z,-1.38
2023-02-08T07:13:51.509Z,-1.07
2023-02-08T07:16:21.643Z,-1.00
2023-02-08T07:18:50.180Z,-0.97
2023-02-08T07:21:18.784Z,-0.91
2023-02-08T07:23:47.327Z,-0.89
2023-02-08T07:26:17.375Z,-0.78
2023-02-08T07:28:48.996Z,-0.68
2023-02-08T07:31:18.981Z,-0.60
2023-02-08T07:33:49.576Z,-0.44
2023-02-08T07:36:18.046Z,-0.43
2023-02-08T07:38:46.667Z,-0.28
2023-02-08T07:41:15.907Z,-0.14
2023-02-08T07:43:44.709Z,0.02
2023-02-08T07:46:16.092Z,0.25
2023-02-08T07:48:45.119Z,0.56
2023-02-08T07:51:15.136Z,0.77
2023-02-08T07:53:43.714Z,1.17
2023-02-08T07:56:12.747Z,1.32
2023-02-08T07:58:42.455Z,1.97
2023-02-08T08:01:21.995Z,2.43
2023-02-08T08:03:52.213Z,2.89
2023-02-08T08:06:23.902Z,3.27
2023-02-08T08:08:52.962Z,3.69
2023-02-08T08:11:22.708Z,4.09
2023-02-08T08:13:51.621Z,4.44
2023-02-08T08:16:20.560Z,4.82
2023-02-08T08:18:49.568Z,5.06
2023-02-08T08:21:18.288Z,5.33
2023-02-08T08:23:48.325Z,5.61
2023-02-08T08:26:19.250Z,5.61
2023-02-08T08:28:48.188Z,5.38
2023-02-08T08:31:18.712Z,5.09
2023-02-08T08:33:48.311Z,4.83
2023-02-08T08:36:16.945Z,4.51
2023-02-08T08:38:45.561Z,4.32
2023-02-08T08:41:18.229Z,4.12
2023-02-08T08:43:46.854Z,3.90
2023-02-08T08:46:16.835Z,3.75
2023-02-08T08:48:45.976Z,3.58
2023-02-08T08:51:15.256Z,3.50
2023-02-08T08:53:43.793Z,3.45
2023-02-08T08:56:12.432Z,3.43
2023-02-08T08:58:43.615Z,3.40
2023-02-08T09:01:14.309Z,3.35
2023-02-08T09:03:42.899Z,3.36
2023-02-08T09:06:11.964Z,3.35
2023-02-08T09:08:40.539Z,3.37
2023-02-08T09:11:10.845Z,3.35
2023-02-08T09:13:40.470Z,3.39
2023-02-08T09:16:13.776Z,3.43
2023-02-08T09:18:43.122Z,3.47
2023-02-08T09:21:14.179Z,3.30
2023-02-08T09:23:42.785Z,3.57
2023-02-08T09:26:13.685Z,3.47
2023-02-08T09:28:42.866Z,3.74
2023-02-08T09:31:14.873Z,3.80
2023-02-08T09:33:43.443Z,3.83
2023-02-08T09:36:12.232Z,3.90
2023-02-08T09:38:41.532Z,3.88
2023-02-08T09:41:24.911Z,4.01
2023-02-08T09:44:02.443Z,4.17
2023-02-08T09:46:38.803Z,4.37
2023-02-08T09:49:14.744Z,4.25
2023-02-08T09:51:47.790Z,4.79
2023-02-08T09:54:20.719Z,4.98
2023-02-08T09:56:51.875Z,5.15
2023-02-08T09:59:25.126Z,5.19
2023-02-08T10:02:02.555Z,5.42
2023-02-08T10:04:39.616Z,5.46
2023-02-08T10:07:10.040Z,5.41
2023-02-08T10:09:38.821Z,5.48
2023-02-08T10:12:18.701Z,5.53
2023-02-08T10:15:06.508Z,5.57
2023-02-08T10:17:56.236Z,5.60
2023-02-08T10:20:34.860Z,5.59
2023-02-08T10:23:21.965Z,5.67
2023-02-08T10:26:13.868Z,5.69
2023-02-08T10:29:08.962Z,5.82
2023-02-08T10:32:02.555Z,5.90
2023-02-08T10:34:47.840Z,5.95
2023-02-08T10:37:21.787Z,6.03
2023-02-08T10:40:01.747Z,6.15
2023-02-08T10:42:36.538Z,6.17
2023-02-08T10:45:23.834Z,6.21
2023-02-08T10:47:56.023Z,6.35
2023-02-08T10:50:35.575Z,6.49
2023-02-08T10:53:06.442Z,6.64
2023-02-08T10:55:48.874Z,6.83
2023-02-08T10:58:28.346Z,6.74
2023-02-08T11:01:19.808Z,7.10
2023-02-08T11:04:36.529Z,7.26
2023-02-08T11:10:38.805Z,7.49
2023-02-08T11:13:26.507Z,7.62
2023-02-08T11:16:04.338Z,7.68
2023-02-08T11:18:58.334Z,7.94
2023-02-08T11:21:30.128Z,7.91
2023-02-08T11:24:07.502Z,8.19
2023-02-08T11:26:43.003Z,8.35
2023-02-08T11:29:28.142Z,8.48
2023-02-08T11:32:22.470Z,8.51
2023-02-08T11:34:51.612Z,8.78
2023-02-08T11:37:33.685Z,8.97
2023-02-08T11:40:10.208Z,9.06
2023-02-08T11:42:53.327Z,9.13
2023-02-08T11:45:35.094Z,9.15
2023-02-08T11:48:05.830Z,9.27
2023-02-08T11:50:38.055Z,9.42
2023-02-08T11:53:09.822Z,9.30
2023-02-08T11:55:40.863Z,9.56
2023-02-08T11:58:24.548Z,9.63
2023-02-08T12:01:00.445Z,9.66
2023-02-08T12:03:33.744Z,9.68
2023-02-08T12:06:17.384Z,9.72
2023-02-08T12:08:54.246Z,9.74
2023-02-08T12:11:31.190Z,9.59
2023-02-08T12:14:17.117Z,9.72
2023-02-08T12:17:01.302Z,9.69
2023-02-08T12:19:52.119Z,9.72
2023-02-08T12:22:26.006Z,9.72
2023-02-08T12:25:05.508Z,9.77
2023-02-08T12:27:44.145Z,9.79
2023-02-08T12:30:21.812Z,9.76
2023-02-08T12:33:18.789Z,9.79
2023-02-08T12:36:08.912Z,9.82
2023-02-08T12:39:19.581Z,9.88
2023-02-08T12:42:01.590Z,9.75
2023-02-08T12:44:37.803Z,9.54
2023-02-08T12:47:24.030Z,9.73
2023-02-08T12:50:02.328Z,9.75
2023-02-08T12:52:37.624Z,9.78
2023-02-08T12:55:17.608Z,9.80
2023-02-08T12:57:50.008Z,9.76
2023-02-08T13:00:24.128Z,9.73
2023-02-08T13:03:00.254Z,9.72
2023-02-08T13:05:35.181Z,9.82
2023-02-08T13:08:09.143Z,9.92
2023-02-08T13:10:43.339Z,10.01
2023-02-08T13:13:17.745Z,10.04
2023-02-08T13:15:53.470Z,10.02
2023-02-08T13:18:25.983Z,10.14
2023-02-08T13:20:58.296Z,10.19
2023-02-08T13:23:29.632Z,10.19
2023-02-08T13:26:02.383Z,9.90
2023-02-08T13:28:31.286Z,10.24
2023-02-08T13:31:05.773Z,10.23
2023-02-08T13:33:59.192Z,10.06
2023-02-08T13:36:34.341Z,9.96
2023-02-08T13:39:06.267Z,10.02
2023-02-08T13:41:36.606Z,10.04
2023-02-08T13:44:07.252Z,9.71
2023-02-08T13:46:47.011Z,10.02
2023-02-08T13:49:44.236Z,9.90
2023-02-08T13:52:13.718Z,9.84
2023-02-08T13:54:42.605Z,9.78
2023-02-08T13:57:43.662Z,9.76
2023-02-08T14:00:24.248Z,9.71
2023-02-08T14:03:23.297Z,9.66
2023-02-08T14:05:58.011Z,9.67
2023-02-08T14:08:32.719Z,9.73
2023-02-08T14:11:13.363Z,9.77
2023-02-08T14:13:48.872Z,9.78
2023-02-08T14:16:32.603Z,9.77
2023-02-08T14:19:04.838Z,9.69
2023-02-08T14:21:38.255Z,9.61
2023-02-08T14:24:09.888Z,9.58
2023-02-08T14:26:39.116Z,9.63
2023-02-08T14:29:08.498Z,9.72
2023-02-08T14:31:40.767Z,9.74
2023-02-08T14:34:23.647Z,9.71
2023-02-08T14:37:01.468Z,9.66
2023-02-08T14:39:33.599Z,9.61
2023-02-08T14:42:05.660Z,9.50
2023-02-08T14:44:59.161Z,9.56
2023-02-08T14:47:54.076Z,9.58
2023-02-08T14:50:29.277Z,9.36
2023-02-08T14:53:06.652Z,9.33
2023-02-08T14:55:43.176Z,9.34
2023-02-08T14:58:16.814Z,9.45
2023-02-08T15:00:46.233Z,9.46
2023-02-08T15:03:19.137Z,9.38
2023-02-08T15:06:16.072Z,9.45
2023-02-08T15:08:50.466Z,9.44
2023-02-08T15:11:25.209Z,8.73
2023-02-08T15:13:58.284Z,9.48
2023-02-08T15:16:34.276Z,9.43
2023-02-08T15:19:05.179Z,9.40
2023-02-08T15:21:37.461Z,9.39
2023-02-08T15:24:14.523Z,9.38
2023-02-08T15:26:48.176Z,9.35
2023-02-08T15:29:24.602Z,9.27
2023-02-08T15:31:55.858Z,9.24
2023-02-08T15:34:27.981Z,9.21
2023-02-08T15:36:58.312Z,9.21
2023-02-08T15:39:34.981Z,9.17
2023-02-08T15:42:03.891Z,9.14
2023-02-08T15:44:34.233Z,9.12
2023-02-08T15:47:05.032Z,8.95
2023-02-08T15:49:37.101Z,9.04
2023-02-08T15:52:09.200Z,8.95
2023-02-08T15:54:37.733Z,9.00
2023-02-08T15:57:18.026Z,8.96
2023-02-08T15:59:48.892Z,8.92
2023-02-08T16:02:25.560Z,8.89
2023-02-08T16:04:54.280Z,8.87
2023-02-08T16:07:29.301Z,8.83
2023-02-08T16:09:59.052Z,8.78
2023-02-08T16:12:29.757Z,7.78
2023-02-08T16:14:58.583Z,8.64
2023-02-08T16:17:37.644Z,8.66
2023-02-08T16:20:28.678Z,8.56
2023-02-08T16:23:01.614Z,8.52
2023-02-08T16:25:45.968Z,8.43
2023-02-08T16:28:29.248Z,8.37
2023-02-08T16:31:00.170Z,8.31
2023-02-08T16:33:30.506Z,8.23
2023-02-08T16:36:02.250Z,8.05
2023-02-08T16:38:34.080Z,8.11
2023-02-08T16:41:13.397Z,8.04
2023-02-08T16:43:44.195Z,7.94
2023-02-08T16:46:25.537Z,7.74
2023-02-08T16:48:56.523Z,7.74
2023-02-08T16:51:27.708Z,7.69
2023-02-08T16:54:03.609Z,7.62
2023-02-08T16:56:32.331Z,7.48
2023-02-08T16:59:00.969Z,7.37
2023-02-08T17:01:36.559Z,7.19
2023-02-08T17:04:05.519Z,6.92
2023-02-08T17:06:35.200Z,6.67
2023-02-08T17:09:07.128Z,6.38
2023-02-08T17:11:35.847Z,6.13
2023-02-08T17:14:05.310Z,5.82
2023-02-08T17:16:35.282Z,5.77
2023-02-08T17:19:04.952Z,5.55
2023-02-08T17:21:33.707Z,5.39
2023-02-08T17:24:03.364Z,5.31
2023-02-08T17:26:36.951Z,5.26
2023-02-08T17:29:05.942Z,5.11
2023-02-08T17:31:34.737Z,4.94
2023-02-08T17:34:05.383Z,4.76
2023-02-08T17:36:35.489Z,4.45
2023-02-08T17:39:06.525Z,4.38
2023-02-08T17:41:36.813Z,4.35
2023-02-08T17:44:06.191Z,4.30
2023-02-08T17:46:34.997Z,4.30
2023-02-08T17:49:04.718Z,4.20
2023-02-08T17:51:34.447Z,4.03
2023-02-08T17:54:05.460Z,3.97
2023-02-08T17:56:36.547Z,3.85
2023-02-08T17:59:05.697Z,3.77
2023-02-08T18:01:35.312Z,3.63
2023-02-08T18:04:03.874Z,3.50
2023-02-08T18:06:32.482Z,3.33
2023-02-08T18:09:01.049Z,3.22
2023-02-08T18:11:29.553Z,3.19
2023-02-08T18:14:00.590Z,3.18
2023-02-08T18:16:30.971Z,3.16
2023-02-08T18:19:02.017Z,3.16
2023-02-08T18:21:33.187Z,3.12
2023-02-08T18:24:03.306Z,3.02
2023-02-08T18:26:33.785Z,2.85
2023-02-08T18:29:04.855Z,2.78
2023-02-08T18:31:34.094Z,2.64
2023-02-08T18:34:03.007Z,2.59
2023-02-08T18:36:31.686Z,2.50
2023-02-08T18:39:00.242Z,2.43
2023-02-08T18:41:31.240Z,2.00
2023-02-08T18:44:00.934Z,2.44
2023-02-08T18:46:31.203Z,2.52
2023-02-08T18:48:59.778Z,2.50
2023-02-08T18:51:29.997Z,2.42
2023-02-08T18:53:58.488Z,2.27
2023-02-08T18:56:28.276Z,2.17
2023-02-08T18:59:00.781Z,2.13
2023-02-08T19:01:30.882Z,2.14
2023-02-08T19:04:00.270Z,2.10
2023-02-08T19:06:30.263Z,1.97
2023-02-08T19:09:01.981Z,1.98
2023-02-08T19:11:32.581Z,2.08
2023-02-08T19:14:03.011Z,2.01
2023-02-08T19:16:34.507Z,1.90
2023-02-08T19:19:04.334Z,1.78
2023-02-08T19:21:33.932Z,1.67
2023-02-08T19:24:03.629Z,1.36
2023-02-08T19:26:36.657Z,1.56
2023-02-08T19:29:07.418Z,1.48
2023-02-08T19:31:37.875Z,1.47
2023-02-08T19:34:07.172Z,1.47
2023-02-08T19:36:37.900Z,1.57
2023-02-08T19:39:07.519Z,1.60
2023-02-08T19:41:38.925Z,1.65
2023-02-08T19:44:09.879Z,1.60
2023-02-08T19:46:40.072Z,1.62
2023-02-08T19:49:09.135Z,1.35
2023-02-08T19:51:37.684Z,1.54
2023-02-08T19:54:10.263Z,1.50
2023-02-08T19:56:38.792Z,1.35
2023-02-08T19:59:10.018Z,1.44
2023-02-08T20:01:40.023Z,1.42
2023-02-08T20:04:08.566Z,1.36
2023-02-08T20:06:39.837Z,1.33
2023-02-08T20:09:09.255Z,1.28
2023-02-08T20:11:54.794Z,1.25
2023-02-08T20:14:24.857Z,1.16
2023-02-08T20:16:55.082Z,1.10
2023-02-08T20:19:23.695Z,1.11
2023-02-08T20:21:52.519Z,1.13
2023-02-08T20:24:21.289Z,1.13
2023-02-08T20:26:50.353Z,1.04
2023-02-08T20:29:19.250Z,0.95
2023-02-08T20:31:49.480Z,0.76
2023-02-08T20:34:20.022Z,0.78
2023-02-08T20:37:05.674Z,0.61
2023-02-08T20:39:36.436Z,0.66
2023-02-08T20:42:05.154Z,0.54
2023-02-08T20:44:34.771Z,0.60
2023-02-08T20:47:03.280Z,0.55
2023-02-08T20:49:33.508Z,0.52
2023-02-08T20:52:02.282Z,0.37
2023-02-08T20:54:30.733Z,0.51
2023-02-08T20:56:59.396Z,0.45
2023-02-08T20:59:28.808Z,0.48
2023-02-08T21:01:57.366Z,0.48
2023-02-08T21:04:27.757Z,0.56
2023-02-08T21:06:57.628Z,0.50
2023-02-08T21:09:27.644Z,0.49
2023-02-08T21:11:56.188Z,0.49
2023-02-08T21:14:24.761Z,0.41
2023-02-08T21:16:56.474Z,0.45
2023-02-08T21:19:26.553Z,0.40
2023-02-08T21:22:00.607Z,0.35
2023-02-08T21:24:30.998Z,0.38
2023-02-08T21:26:59.796Z,0.40
2023-02-08T21:29:29.777Z,0.33
2023-02-08T21:31:58.815Z,0.41
2023-02-08T21:34:27.827Z,0.46
2023-02-08T21:36:56.506Z,0.54
2023-02-08T21:39:27.190Z,0.59
2023-02-08T21:41:56.593Z,0.69
2023-02-08T21:44:25.840Z,0.68
2023-02-08T21:46:54.533Z,0.71
2023-02-08T21:49:40.569Z,0.79
2023-02-08T21:52:27.519Z,0.92
2023-02-08T21:54:57.561Z,0.96
2023-02-08T21:57:28.748Z,0.93
2023-02-08T21:59:59.783Z,0.84
2023-02-08T22:02:30.781Z,0.86
2023-02-08T22:05:00.720Z,0.84
2023-02-08T22:07:30.140Z,0.80
2023-02-08T22:10:00.046Z,0.77
2023-02-08T22:12:28.629Z,0.69
2023-02-08T22:14:57.204Z,0.57
2023-02-08T22:17:25.735Z,0.56
2023-02-08T22:19:54.324Z,0.54
2023-02-08T22:22:22.828Z,0.54
2023-02-08T22:24:51.454Z,0.58
2023-02-08T22:27:21.398Z,0.55
2023-02-08T22:29:49.894Z,0.54
2023-02-08T22:32:18.567Z,0.48
2023-02-08T22:34:48.087Z,0.41
2023-02-08T22:37:17.018Z,0.36
2023-02-08T22:39:45.615Z,0.30
2023-02-08T22:42:14.996Z,0.34
2023-02-08T22:44:46.214Z,0.24
2023-02-08T22:47:15.285Z,0.14
2023-02-08T22:49:43.968Z,0.07
2023-02-08T22:52:12.901Z,-0.07
2023-02-08T22:54:41.707Z,0.05
2023-02-08T22:57:11.023Z,0.14
2023-02-08T22:59:41.115Z,0.18
2023-02-08T23:02:11.155Z,0.12
2023-02-08T23:04:39.753Z,0.08
2023-02-08T23:07:08.285Z,0.12
2023-02-08T23:09:36.779Z,0.22
2023-02-08T23:12:05.555Z,0.28
2023-02-08T23:14:34.294Z,0.34
2023-02-08T23:17:03.335Z,0.30
2023-02-08T23:19:33.384Z,0.29
2023-02-08T23:22:02.043Z,0.32
2023-02-08T23:24:30.565Z,0.35
2023-02-08T23:26:59.066Z,0.32
2023-02-08T23:29:28.557Z,0.28
2023-02-08T23:31:57.358Z,0.21
2023-02-08T23:34:26.428Z,0.15
2023-02-08T23:36:56.414Z,0.10
2023-02-08T23:39:25.606Z,0.04
2023-02-08T23:41:56.944Z,-0.03
2023-02-08T23:44:27.266Z,-0.03
2023-02-08T23:46:55.918Z,-0.10
2023-02-08T23:49:24.585Z,-0.10
2023-02-08T23:51:55.757Z,-0.12
2023-02-08T23:54:24.318Z,-0.20
2023-02-08T23:56:53.216Z,-0.15
2023-02-08T23:59:21.886Z,-0.15
